Time;durP1;ratioP1;P1;durP2;ratioP2;P2;SDS_P1;SDS_P2;PMS_P1;PMS_P2;Temp;Humidity;BMP_temperature;BMP_pressure;BME280_temperature;BME280_humidity;BME280_pressure;Samples;Min_cycle;Max_cycle;Signal;HPM_P1;HPM_P2
2022/04/16 00:01:49;;;;;;;2.03;1.83;;;9.70;99.90;;;;;;4955390;28;20268;-72
2022/04/16 00:04:15;;;;;;;1.67;1.50;;;9.60;99.90;;;;;;4954528;29;20230;-73
2022/04/16 00:06:40;;;;;;;2.10;1.90;;;9.50;99.90;;;;;;4954549;28;20442;-72
2022/04/16 00:09:06;;;;;;;2.00;1.90;;;9.50;99.90;;;;;;4956770;28;20218;-72
2022/04/16 00:11:31;;;;;;;3.80;2.20;;;9.50;99.90;;;;;;4955491;28;20235;-72
2022/04/16 00:13:57;;;;;;;3.03;1.43;;;9.40;99.90;;;;;;4955254;28;20193;-73
2022/04/16 00:16:23;;;;;;;3.10;1.70;;;9.40;99.90;;;;;;4954830;28;20184;-72
2022/04/16 00:18:48;;;;;;;1.80;1.70;;;9.40;99.90;;;;;;4954352;29;20201;-72
2022/04/16 00:21:14;;;;;;;1.73;1.63;;;9.40;99.90;;;;;;4953689;28;20241;-72
2022/04/16 00:23:43;;;;;;;1.60;1.50;;;9.30;99.90;;;;;;4955295;28;20203;-71
2022/04/16 00:26:12;;;;;;;2.03;1.80;;;9.30;99.90;;;;;;4954051;29;20182;-71
2022/04/16 00:28:38;;;;;;;3.47;1.77;;;9.20;99.90;;;;;;4954612;28;20525;-72
2022/04/16 00:31:04;;;;;;;1.50;1.30;;;9.20;99.90;;;;;;4955080;28;20538;-71
2022/04/16 00:33:30;;;;;;;1.80;1.70;;;9.10;99.90;;;;;;4955070;28;20584;-71
2022/04/16 00:35:55;;;;;;;4.27;1.67;;;9.10;99.90;;;;;;4954409;28;20197;-71
2022/04/16 00:38:21;;;;;;;2.10;1.90;;;9.10;99.90;;;;;;4971149;28;20446;-72
2022/04/16 00:40:47;;;;;;;1.47;1.20;;;9.10;99.90;;;;;;4972889;28;20188;-74
2022/04/16 00:43:27;;;;;;;1.77;1.67;;;9.10;99.90;;;;;;4970719;28;20270;-71
2022/04/16 00:45:53;;;;;;;1.43;1.33;;;9.00;99.90;;;;;;4956716;28;20203;-71
2022/04/16 00:48:20;;;;;;;1.67;1.57;;;9.00;99.90;;;;;;4968179;28;21272;-72
2022/04/16 00:50:49;;;;;;;2.10;1.80;;;8.90;99.90;;;;;;4955050;28;20421;-71
2022/04/16 00:53:16;;;;;;;1.77;1.67;;;8.90;99.90;;;;;;4953655;28;20415;-71
2022/04/16 00:55:42;;;;;;;1.90;1.80;;;8.90;99.90;;;;;;4955913;28;21237;-72
2022/04/16 00:58:07;;;;;;;2.00;1.90;;;8.90;99.90;;;;;;4953700;29;20508;-72
2022/04/16 02:31:10;;;;;;;2.10;2.00;;;8.00;99.90;;;;;;5792154;23;20538;-71
2022/04/16 02:33:36;;;;;;;2.30;2.10;;;7.90;99.90;;;;;;4968769;28;20461;-70
2022/04/16 02:36:04;;;;;;;2.70;2.30;;;7.90;99.90;;;;;;4973048;28;20202;-71
2022/04/16 02:38:30;;;;;;;2.70;2.10;;;7.90;99.90;;;;;;4975706;28;20435;-71
2022/04/16 02:40:55;;;;;;;2.63;2.43;;;7.90;99.90;;;;;;4975309;28;21138;-72
2022/04/16 02:43:21;;;;;;;3.00;2.80;;;7.90;99.90;;;;;;4974435;28;20581;-70
2022/04/16 02:48:30;;;;;;;2.33;2.10;;;7.80;99.90;;;;;;4956762;28;20218;-70
2022/04/16 02:50:56;;;;;;;2.47;2.27;;;7.80;99.90;;;;;;4963726;28;20461;-70
2022/04/16 02:53:22;;;;;;;2.40;2.23;;;7.70;99.90;;;;;;4956123;29;20176;-70
2022/04/16 02:55:48;;;;;;;2.67;2.43;;;7.60;99.90;;;;;;4957141;28;20519;-70
2022/04/16 02:58:13;;;;;;;2.70;2.50;;;7.60;99.90;;;;;;4955779;28;20203;-70
2022/04/16 03:00:41;;;;;;;4.40;2.30;;;7.60;99.90;;;;;;4967019;28;20191;-72
2022/04/16 03:03:08;;;;;;;2.60;2.40;;;7.50;99.90;;;;;;4974925;28;20629;-70
2022/04/16 03:05:34;;;;;;;2.73;2.53;;;7.50;99.90;;;;;;4973326;28;20924;-71
2022/04/16 03:08:00;;;;;;;3.20;1.90;;;7.50;99.90;;;;;;4974727;28;20447;-70
2022/04/16 03:10:26;;;;;;;2.90;2.30;;;7.40;99.90;;;;;;4972742;28;20450;-71
2022/04/16 03:12:52;;;;;;;2.57;2.00;;;7.30;99.90;;;;;;4972584;28;20216;-70
2022/04/16 03:18:04;;;;;;;2.23;2.03;;;7.10;99.90;;;;;;4955690;29;20467;-70
2022/04/16 03:20:30;;;;;;;2.07;1.97;;;7.00;99.90;;;;;;4955323;29;20512;-69
2022/04/16 03:22:57;;;;;;;2.17;1.97;;;6.90;99.90;;;;;;4970084;28;20476;-71
2022/04/16 03:25:23;;;;;;;1.97;1.87;;;6.80;99.90;;;;;;4974580;28;20196;-72
2022/04/16 03:27:49;;;;;;;2.17;1.97;;;6.80;99.90;;;;;;4972286;28;20470;-70
2022/04/16 03:30:14;;;;;;;2.80;2.60;;;6.70;99.90;;;;;;4972330;28;20479;-70
2022/04/16 03:32:41;;;;;;;2.70;2.50;;;6.70;99.90;;;;;;4967839;28;20223;-70
2022/04/16 03:35:07;;;;;;;2.73;2.47;;;6.70;99.90;;;;;;4972185;28;20289;-70
2022/04/16 03:37:36;;;;;;;2.47;2.37;;;6.60;99.90;;;;;;4972904;28;20929;-70
2022/04/16 03:40:06;;;;;;;2.07;1.97;;;6.60;99.90;;;;;;4973619;28;20444;-71
2022/04/16 03:42:32;;;;;;;3.10;2.23;;;6.60;99.90;;;;;;4971887;28;20465;-71
2022/04/16 03:45:00;;;;;;;2.70;2.50;;;6.60;99.90;;;;;;4968018;28;20467;-70
2022/04/16 03:47:25;;;;;;;2.40;2.20;;;6.60;99.90;;;;;;4974301;28;20181;-70
2022/04/16 03:49:51;;;;;;;2.90;2.70;;;6.60;99.90;;;;;;4972823;28;20883;-71
2022/04/16 03:52:17;;;;;;;3.83;3.00;;;6.60;99.90;;;;;;4975151;28;20213;-70
2022/04/16 04:00:12;;;;;;;3.33;3.03;;;6.50;99.90;;;;;;4969564;28;20984;-71
2022/04/16 04:02:38;;;;;;;2.40;2.20;;;6.40;99.90;;;;;;4973825;28;20477;-70
2022/04/16 04:05:06;;;;;;;2.97;2.77;;;6.30;99.90;;;;;;4971824;28;20516;-71
2022/04/16 04:07:31;;;;;;;2.87;2.50;;;6.30;99.90;;;;;;4974919;28;20437;-71
2022/04/16 04:09:57;;;;;;;3.53;2.60;;;6.30;99.90;;;;;;4972150;28;20465;-70
2022/04/16 04:12:22;;;;;;;2.50;2.30;;;6.20;99.90;;;;;;4973671;28;20612;-69
2022/04/16 04:14:48;;;;;;;2.47;2.27;;;6.20;99.90;;;;;;4969605;28;20186;-72
2022/04/16 04:17:14;;;;;;;2.83;2.50;;;6.20;99.90;;;;;;4973624;28;20188;-70
2022/04/16 04:19:45;;;;;;;2.33;2.13;;;6.20;99.90;;;;;;4973544;28;20208;-70
2022/04/16 04:22:15;;;;;;;6.30;3.20;;;6.10;99.90;;;;;;4971603;28;20512;-70
2022/04/16 04:24:41;;;;;;;4.40;2.43;;;6.00;99.90;;;;;;4973628;28;20921;-70
2022/04/16 04:27:07;;;;;;;2.93;2.60;;;6.00;99.90;;;;;;4969373;28;21065;-70
2022/04/16 04:29:34;;;;;;;2.60;2.40;;;6.00;99.90;;;;;;4971668;28;20468;-71
2022/04/16 04:31:59;;;;;;;2.30;2.20;;;6.00;99.90;;;;;;4972073;28;20483;-70
2022/04/16 04:34:25;;;;;;;2.63;2.43;;;6.00;99.90;;;;;;4969361;28;20439;-70
2022/04/16 04:36:51;;;;;;;3.33;3.03;;;6.00;99.90;;;;;;4971422;28;20233;-71
2022/04/16 04:39:16;;;;;;;2.93;1.87;;;6.10;99.90;;;;;;4971020;28;20219;-71
2022/04/16 04:41:44;;;;;;;4.00;2.77;;;6.10;99.90;;;;;;4971313;28;20464;-71
2022/04/16 04:44:11;;;;;;;2.77;2.20;;;6.20;99.90;;;;;;4971085;28;20240;-72
2022/04/16 04:46:36;;;;;;;2.67;2.47;;;6.30;99.90;;;;;;4973187;28;20451;-71
2022/04/16 04:49:02;;;;;;;2.40;2.30;;;6.30;99.90;;;;;;4969278;28;20980;-71
2022/04/16 04:51:27;;;;;;;6.13;2.97;;;6.40;99.90;;;;;;4972787;28;20277;-71
2022/04/16 04:53:53;;;;;;;3.27;3.00;;;6.40;99.90;;;;;;4971564;28;20189;-70
2022/04/16 04:56:18;;;;;;;2.50;2.40;;;6.40;99.90;;;;;;4973045;28;20184;-71
2022/04/16 04:58:44;;;;;;;3.27;2.90;;;6.40;99.90;;;;;;4969782;28;20239;-70
2022/04/16 05:01:09;;;;;;;2.53;2.33;;;6.50;99.90;;;;;;4967560;28;20632;-70
2022/04/16 05:03:35;;;;;;;2.40;2.20;;;6.60;99.90;;;;;;4971436;28;20209;-70
2022/04/16 05:06:00;;;;;;;3.60;3.23;;;6.60;99.90;;;;;;4972834;28;20178;-70
2022/04/16 05:08:26;;;;;;;6.17;3.00;;;6.70;99.90;;;;;;4971049;28;20708;-71
2022/04/16 05:10:51;;;;;;;6.43;2.70;;;6.80;99.90;;;;;;4970440;28;20186;-70
2022/04/16 05:13:17;;;;;;;3.03;2.80;;;6.80;99.90;;;;;;4972658;28;20174;-71
2022/04/16 05:15:42;;;;;;;3.40;3.10;;;6.90;99.90;;;;;;4969471;28;20232;-70
2022/04/16 05:18:08;;;;;;;3.23;2.60;;;7.00;99.90;;;;;;4972655;28;20187;-70
2022/04/16 05:20:36;;;;;;;3.93;3.50;;;7.10;99.90;;;;;;4968670;28;20219;-71
2022/04/16 05:23:02;;;;;;;3.67;2.90;;;7.20;99.90;;;;;;4953296;28;20660;-70
2022/04/16 05:25:27;;;;;;;3.07;2.87;;;7.20;99.90;;;;;;4960681;28;20500;-70
2022/04/16 05:27:53;;;;;;;3.17;2.87;;;7.30;99.90;;;;;;4972821;28;20272;-70
2022/04/16 05:33:05;;;;;;;4.50;2.83;;;7.40;99.90;;;;;;4970831;28;20575;-70
2022/04/16 05:35:32;;;;;;;3.10;2.90;;;7.60;99.90;;;;;;4962165;28;20433;-70
2022/04/16 05:37:59;;;;;;;2.80;2.60;;;7.60;99.90;;;;;;4972642;28;20795;-70
2022/04/16 05:40:24;;;;;;;3.90;3.40;;;7.70;99.90;;;;;;4972589;28;20842;-70
2022/04/16 05:42:50;;;;;;;3.43;3.10;;;7.80;99.90;;;;;;4968642;28;20605;-72
2022/04/16 05:45:15;;;;;;;3.23;2.93;;;7.80;99.90;;;;;;4971004;28;20202;-70
2022/04/16 05:47:42;;;;;;;3.90;3.17;;;7.90;99.90;;;;;;4971213;28;20573;-70
2022/04/16 05:50:09;;;;;;;5.67;3.13;;;7.90;99.90;;;;;;4972451;28;20179;-72
2022/04/16 05:52:35;;;;;;;3.80;3.50;;;7.90;99.90;;;;;;4968796;28;20461;-70
2022/04/16 05:55:02;;;;;;;3.47;3.17;;;8.00;99.90;;;;;;4972141;28;20938;-70
2022/04/16 05:57:28;;;;;;;8.60;3.43;;;8.10;99.90;;;;;;4970608;28;20833;-74
2022/04/16 05:59:55;;;;;;;2.40;2.07;;;8.20;99.90;;;;;;4970427;28;20529;-71
2022/04/16 06:02:21;;;;;;;5.23;3.40;;;8.20;99.90;;;;;;4970251;28;20489;-71
2022/04/16 06:04:47;;;;;;;4.30;3.30;;;8.40;99.90;;;;;;4973633;28;20440;-71
2022/04/16 06:07:13;;;;;;;5.50;3.60;;;8.40;99.90;;;;;;4975755;28;20247;-71
2022/04/16 06:09:38;;;;;;;3.90;3.53;;;8.50;99.90;;;;;;4974347;28;20216;-71
2022/04/16 06:12:05;;;;;;;4.20;2.93;;;8.60;99.90;;;;;;4975639;28;20967;-72
2022/04/16 06:14:31;;;;;;;5.47;3.57;;;8.70;99.90;;;;;;4970321;28;20192;-71
2022/04/16 06:16:57;;;;;;;4.43;3.40;;;8.90;99.90;;;;;;4980800;28;20408;-73
2022/04/16 06:19:23;;;;;;;3.23;2.90;;;8.90;99.90;;;;;;4976612;28;20451;-72
2022/04/16 06:21:49;;;;;;;3.87;3.20;;;9.00;99.90;;;;;;4975597;28;20290;-73
2022/04/16 06:24:14;;;;;;;3.77;3.37;;;9.00;99.90;;;;;;4973695;28;20526;-71
2022/04/16 06:26:42;;;;;;;3.80;3.50;;;9.00;99.90;;;;;;4973619;28;20946;-72
2022/04/16 06:29:08;;;;;;;2.80;2.53;;;9.10;99.90;;;;;;4974177;28;20211;-72
2022/04/16 06:31:33;;;;;;;4.13;3.37;;;9.10;99.90;;;;;;4973517;28;20988;-73
2022/04/16 06:33:58;;;;;;;3.57;3.30;;;9.20;99.90;;;;;;4973520;28;20437;-72
2022/04/16 06:36:24;;;;;;;3.77;3.37;;;9.20;99.90;;;;;;4973200;28;20571;-72
2022/04/16 06:38:49;;;;;;;3.30;3.10;;;9.20;99.90;;;;;;4975441;28;20225;-73
2022/04/16 06:41:15;;;;;;;4.50;3.43;;;9.30;99.90;;;;;;4973200;28;20218;-72
2022/04/16 06:43:41;;;;;;;4.30;3.87;;;9.30;99.90;;;;;;4975577;28;20703;-72
2022/04/16 06:46:06;;;;;;;3.93;3.13;;;9.40;99.90;;;;;;4970865;28;20288;-72
2022/04/16 06:48:32;;;;;;;4.33;3.93;;;9.40;99.90;;;;;;4975237;28;20238;-72
2022/04/16 06:50:57;;;;;;;7.23;4.13;;;9.40;99.90;;;;;;4973419;28;20574;-72
2022/04/16 06:53:26;;;;;;;4.63;4.23;;;9.30;99.90;;;;;;4975082;28;20468;-72
2022/04/16 06:55:51;;;;;;;6.27;3.60;;;9.20;99.90;;;;;;4975109;28;20175;-71
2022/04/16 06:58:17;;;;;;;3.47;3.23;;;9.30;99.90;;;;;;4969661;28;20460;-72
2022/04/16 07:00:42;;;;;;;3.77;3.47;;;9.30;99.90;;;;;;4972884;28;20241;-72
2022/04/16 07:03:08;;;;;;;4.90;3.57;;;9.30;99.90;;;;;;4973028;28;20194;-72
2022/04/16 07:05:34;;;;;;;6.40;4.57;;;9.30;99.90;;;;;;4975039;28;20185;-72
2022/04/16 07:07:59;;;;;;;4.00;3.60;;;9.40;99.90;;;;;;4971099;28;20628;-71
2022/04/16 07:10:25;;;;;;;4.33;3.93;;;9.50;99.90;;;;;;4974782;28;20472;-71
2022/04/16 07:12:50;;;;;;;3.63;3.30;;;9.50;99.90;;;;;;4973012;28;20228;-72
2022/04/16 07:15:16;;;;;;;6.63;3.53;;;9.50;99.90;;;;;;4973113;28;20193;-73
2022/04/16 07:17:41;;;;;;;3.63;3.33;;;9.60;99.90;;;;;;4972787;28;20187;-72
2022/04/16 07:20:07;;;;;;;4.07;3.67;;;9.70;99.90;;;;;;4972452;28;20193;-72
2022/04/16 07:22:34;;;;;;;8.47;5.50;;;9.70;99.90;;;;;;4974339;28;20289;-72
2022/04/16 07:25:00;;;;;;;5.07;4.47;;;9.80;99.90;;;;;;4972886;28;20542;-72
2022/04/16 07:27:25;;;;;;;5.07;4.07;;;9.90;99.90;;;;;;4974690;28;20424;-72
2022/04/16 07:29:58;;;;;;;5.70;3.63;;;10.10;99.90;;;;;;4969779;28;20219;-72
2022/04/16 07:32:24;;;;;;;6.63;4.27;;;10.00;99.90;;;;;;4973981;28;20210;-73
2022/04/16 07:34:50;;;;;;;6.00;4.13;;;10.00;99.90;;;;;;4972762;28;21066;-72
2022/04/16 07:37:15;;;;;;;5.83;4.20;;;10.00;99.90;;;;;;4974202;28;20857;-73
2022/04/16 07:39:41;;;;;;;4.80;3.73;;;10.00;99.90;;;;;;4972312;28;20195;-72
2022/04/16 07:42:06;;;;;;;4.40;4.00;;;10.00;99.90;;;;;;4971706;28;20226;-72
2022/04/16 07:44:32;;;;;;;4.90;4.37;;;10.10;99.90;;;;;;4972081;28;20195;-72
2022/04/16 07:46:57;;;;;;;4.73;4.23;;;10.10;99.90;;;;;;4974201;28;20179;-72
2022/04/16 07:49:23;;;;;;;5.00;4.37;;;10.20;99.90;;;;;;4973967;28;20601;-72
2022/04/16 07:51:48;;;;;;;6.23;5.27;;;10.20;99.90;;;;;;4969808;28;20216;-72
2022/04/16 07:54:14;;;;;;;5.60;4.33;;;10.20;99.90;;;;;;4972658;28;20174;-72
2022/04/16 07:56:39;;;;;;;5.53;5.03;;;10.30;99.90;;;;;;4967534;28;20578;-70
2022/04/16 07:59:05;;;;;;;7.30;4.07;;;10.40;99.90;;;;;;4971745;28;20245;-73
2022/04/16 08:01:30;;;;;;;5.57;4.90;;;10.50;99.90;;;;;;4969367;28;20210;-72
2022/04/16 08:03:56;;;;;;;4.30;3.90;;;10.60;99.90;;;;;;4973934;28;20192;-72
2022/04/16 08:06:21;;;;;;;5.77;4.60;;;10.80;99.90;;;;;;4971866;28;20191;-72
2022/04/16 08:08:47;;;;;;;6.07;4.73;;;10.80;99.90;;;;;;4974151;28;20674;-72
2022/04/16 08:11:13;;;;;;;7.67;5.13;;;11.00;99.90;;;;;;4972586;28;20203;-72
2022/04/16 08:13:38;;;;;;;6.30;5.23;;;11.00;99.90;;;;;;4970152;28;20210;-72
2022/04/16 08:16:05;;;;;;;6.23;4.53;;;10.90;99.90;;;;;;4971429;28;20265;-72
2022/04/16 08:18:30;;;;;;;6.10;5.50;;;11.00;99.90;;;;;;4971789;28;20218;-72
2022/04/16 08:20:56;;;;;;;8.07;5.83;;;10.90;99.90;;;;;;4973581;28;20949;-72
2022/04/16 08:23:21;;;;;;;6.93;4.63;;;10.90;99.90;;;;;;4969362;28;21715;-72
2022/04/16 08:25:47;;;;;;;7.20;5.37;;;10.90;99.90;;;;;;4973152;28;20548;-72
2022/04/16 08:28:13;;;;;;;5.83;5.33;;;11.00;99.90;;;;;;4971422;28;20213;-72
2022/04/16 08:30:38;;;;;;;7.30;5.40;;;10.90;99.90;;;;;;4971188;28;20547;-72
2022/04/16 08:33:05;;;;;;;5.43;4.80;;;11.00;99.90;;;;;;4971015;28;20270;-72
2022/04/16 08:35:30;;;;;;;5.53;4.47;;;11.20;99.90;;;;;;4971295;28;20620;-72
2022/04/16 08:37:57;;;;;;;5.40;4.90;;;11.30;99.90;;;;;;4973496;28;20444;-72
2022/04/16 08:40:23;;;;;;;8.67;5.43;;;11.50;99.90;;;;;;4971597;28;20225;-71
2022/04/16 08:42:49;;;;;;;7.67;6.07;;;11.50;99.90;;;;;;4973055;28;20428;-71
2022/04/16 08:45:14;;;;;;;7.43;6.30;;;11.40;99.90;;;;;;4964449;28;20250;-72
2022/04/16 08:47:41;;;;;;;6.60;5.23;;;11.30;99.90;;;;;;4973064;28;20919;-72
2022/04/16 08:50:09;;;;;;;6.30;5.70;;;11.30;99.90;;;;;;4971126;28;20288;-73
2022/04/16 08:52:37;;;;;;;6.60;5.47;;;11.40;99.90;;;;;;4972885;28;20440;-72
2022/04/16 08:55:05;;;;;;;8.00;5.83;;;11.50;99.90;;;;;;4970950;28;20460;-73
2022/04/16 08:57:30;;;;;;;6.33;4.73;;;11.40;99.90;;;;;;4964570;28;20439;-72
2022/04/16 08:59:57;;;;;;;6.23;5.43;;;11.50;99.90;;;;;;4967747;28;20533;-72
2022/04/16 09:02:25;;;;;;;7.83;5.63;;;11.80;99.90;;;;;;4972364;28;20223;-73
2022/04/16 09:05:02;;;;;;;7.10;5.87;;;11.90;99.90;;;;;;4972826;28;20986;-72
2022/04/16 09:07:28;;;;;;;8.20;6.30;;;12.00;99.90;;;;;;4969102;28;20536;-73
2022/04/16 09:09:53;;;;;;;7.67;6.00;;;12.00;99.90;;;;;;4972827;28;21055;-73
2022/04/16 09:12:20;;;;;;;8.07;5.93;;;11.90;99.90;;;;;;4970587;28;20245;-72
2022/04/16 09:14:46;;;;;;;6.80;5.90;;;11.80;99.90;;;;;;4970798;28;20275;-72
2022/04/16 09:17:18;;;;;;;8.00;5.83;;;11.70;99.90;;;;;;4970399;28;20442;-71
2022/04/16 09:19:54;;;;;;;9.23;7.10;;;11.80;99.90;;;;;;4972813;28;20413;-72
2022/04/16 09:22:36;;;;;;;7.73;6.73;;;11.50;99.90;;;;;;4970427;28;20462;-72
2022/04/16 09:25:02;;;;;;;7.77;7.00;;;11.40;99.90;;;;;;4972704;28;20416;-72
2022/04/16 09:27:43;;;;;;;7.90;7.03;;;11.30;99.90;;;;;;4970645;28;21021;-72
2022/04/16 09:30:09;;;;;;;10.20;8.20;;;11.30;99.90;;;;;;4966187;28;20999;-72
2022/04/16 09:32:43;;;;;;;10.50;7.70;;;11.20;99.90;;;;;;4968744;28;20516;-72
2022/04/16 09:35:24;;;;;;;8.47;7.20;;;11.20;99.90;;;;;;4972544;28;20415;-72
2022/04/16 09:37:53;;;;;;;10.33;7.30;;;11.50;99.90;;;;;;4970538;28;20499;-72
2022/04/16 09:40:19;;;;;;;11.57;7.30;;;11.50;99.90;;;;;;4974142;28;20841;-72
2022/04/16 09:42:52;;;;;;;10.63;8.17;;;11.60;99.90;;;;;;4975252;28;20489;-72
2022/04/16 09:45:17;;;;;;;9.90;6.80;;;11.70;99.90;;;;;;4963256;28;20187;-72
2022/04/16 09:47:47;;;;;;;10.43;6.90;;;11.70;99.90;;;;;;4974943;28;20419;-72
2022/04/16 09:50:13;;;;;;;9.77;7.50;;;11.80;99.90;;;;;;4972492;28;20270;-72
2022/04/16 09:52:40;;;;;;;10.00;8.20;;;11.80;99.90;;;;;;4976229;28;20513;-72
2022/04/16 09:55:07;;;;;;;12.07;7.40;;;11.70;99.90;;;;;;4975237;28;20431;-72
2022/04/16 09:57:38;;;;;;;9.97;7.57;;;11.80;99.90;;;;;;4972665;28;20439;-72
2022/04/16 10:00:04;;;;;;;17.93;7.10;;;11.90;99.90;;;;;;4963868;28;20427;-72
2022/04/16 10:02:31;;;;;;;9.00;6.37;;;11.90;99.90;;;;;;4976629;28;20773;-72
2022/04/16 10:04:59;;;;;;;7.63;5.80;;;11.90;99.90;;;;;;4975066;28;20947;-71
2022/04/16 10:07:25;;;;;;;10.63;6.93;;;11.90;99.90;;;;;;4976486;28;20439;-72
2022/04/16 10:09:53;;;;;;;9.53;6.90;;;12.00;99.90;;;;;;4974986;28;20479;-71
2022/04/16 10:15:11;;;;;;;9.33;7.70;;;11.90;99.90;;;;;;4974537;28;20547;-72
2022/04/16 10:17:58;;;;;;;9.63;7.10;;;12.00;99.90;;;;;;4975545;28;20426;-72
2022/04/16 10:20:25;;;;;;;10.10;6.90;;;12.30;99.90;;;;;;4974551;28;20407;-70
2022/04/16 10:22:54;;;;;;;10.30;7.93;;;12.40;99.90;;;;;;4973160;28;20494;-72
2022/04/16 10:25:35;;;;;;;10.47;7.70;;;12.50;99.90;;;;;;4975640;28;20404;-72
2022/04/16 10:28:06;;;;;;;8.30;6.77;;;12.40;99.90;;;;;;4974056;28;20470;-73
2022/04/16 10:30:40;;;;;;;8.97;6.60;;;12.70;99.90;;;;;;4973350;28;20450;-72
2022/04/16 10:33:19;;;;;;;12.40;7.30;;;13.00;99.90;;;;;;4973179;28;20451;-72
2022/04/16 10:35:52;;;;;;;8.00;6.77;;;13.10;99.90;;;;;;4975643;28;20467;-72
2022/04/16 10:38:42;;;;;;;8.33;6.80;;;13.10;99.90;;;;;;4973483;28;20443;-72
2022/04/16 10:41:17;;;;;;;11.13;7.17;;;13.00;99.90;;;;;;4975054;28;20446;-72
2022/04/16 10:43:57;;;;;;;8.40;6.40;;;13.30;99.90;;;;;;4968811;28;20816;-72
2022/04/16 10:46:23;;;;;;;9.00;6.60;;;13.40;99.90;;;;;;4967854;28;20546;-72
2022/04/16 10:48:49;;;;;;;7.70;6.47;;;13.60;99.90;;;;;;4974773;28;20478;-73
2022/04/16 10:51:20;;;;;;;7.97;5.60;;;13.60;99.90;;;;;;4975919;28;20200;-72
2022/04/16 10:53:45;;;;;;;6.13;4.70;;;13.60;99.90;;;;;;4972345;28;20859;-72
2022/04/16 10:56:12;;;;;;;6.83;4.23;;;13.60;99.90;;;;;;4972874;28;20462;-73
2022/04/16 10:59:01;;;;;;;3.27;2.97;;;13.50;99.90;;;;;;4969800;28;20191;-72
2022/04/16 11:01:29;;;;;;;4.17;3.43;;;13.40;99.90;;;;;;4967070;28;20553;-72
2022/04/16 11:03:56;;;;;;;5.93;4.07;;;13.40;99.90;;;;;;4973180;28;20435;-73
2022/04/16 11:06:33;;;;;;;4.40;4.00;;;13.40;99.90;;;;;;4973214;28;20427;-72
2022/04/16 11:09:00;;;;;;;2.93;2.63;;;13.60;99.90;;;;;;4973570;28;20483;-70
2022/04/16 11:11:25;;;;;;;3.20;2.80;;;13.70;99.90;;;;;;4974895;28;20439;-73
2022/04/16 11:13:51;;;;;;;4.87;3.50;;;13.90;99.90;;;;;;4974995;28;20586;-73
2022/04/16 11:16:22;;;;;;;5.30;4.13;;;13.80;99.90;;;;;;4968590;28;20188;-72
2022/04/16 11:18:48;;;;;;;10.10;4.33;;;13.80;99.90;;;;;;4974846;28;20247;-73
2022/04/16 11:21:18;;;;;;;4.67;4.17;;;13.70;99.90;;;;;;4972513;28;20467;-72
2022/04/16 11:23:51;;;;;;;5.27;3.50;;;14.00;99.90;;;;;;4974741;28;20475;-72
2022/04/16 11:34:41;;;;;;;4.43;3.47;;;13.70;99.90;;;;;;4974871;28;20458;-72
2022/04/16 11:37:07;;;;;;;4.03;3.63;;;13.70;99.90;;;;;;4970105;28;20936;-72
2022/04/16 11:39:34;;;;;;;5.27;4.03;;;13.70;99.90;;;;;;4974638;28;20182;-73
2022/04/16 11:42:10;;;;;;;6.07;4.90;;;13.80;99.90;;;;;;4972701;28;20462;-73
2022/04/16 11:44:42;;;;;;;4.77;4.37;;;13.90;99.90;;;;;;4972851;28;20461;-72
2022/04/16 11:47:11;;;;;;;3.83;3.53;;;14.00;99.90;;;;;;4971140;28;20431;-73
2022/04/16 11:49:40;;;;;;;4.20;3.60;;;14.10;99.90;;;;;;4972077;28;20471;-73
2022/04/16 11:52:06;;;;;;;5.20;4.10;;;14.20;99.90;;;;;;4972188;28;20460;-72
2022/04/16 11:54:32;;;;;;;4.73;3.43;;;13.90;99.90;;;;;;4974306;28;20419;-72
2022/04/16 11:56:58;;;;;;;6.30;4.60;;;13.80;99.90;;;;;;4971999;28;20432;-73
2022/04/16 11:59:25;;;;;;;5.57;4.47;;;13.90;99.90;;;;;;4971928;28;20278;-73
2022/04/16 12:02:09;;;;;;;4.93;4.43;;;13.80;99.90;;;;;;4971140;28;20459;-74
2022/04/16 12:04:37;;;;;;;5.00;4.13;;;13.90;99.90;;;;;;4972413;28;20453;-74
2022/04/16 12:07:08;;;;;;;4.23;3.80;;;14.00;99.90;;;;;;4973755;28;20420;-73
2022/04/16 12:09:34;;;;;;;4.83;3.83;;;14.40;99.90;;;;;;4969621;28;20991;-73
2022/04/16 12:12:01;;;;;;;5.13;3.97;;;14.50;99.90;;;;;;4973739;28;20446;-72
2022/04/16 12:14:26;;;;;;;5.90;4.33;;;14.60;99.90;;;;;;4971915;28;20197;-73
2022/04/16 12:17:01;;;;;;;3.63;3.30;;;14.70;99.90;;;;;;4967258;28;20550;-74
2022/04/16 12:19:31;;;;;;;4.83;4.03;;;14.60;99.90;;;;;;4971574;28;20699;-73
2022/04/16 12:21:57;;;;;;;3.97;3.30;;;14.70;99.90;;;;;;4971218;28;20459;-74
2022/04/16 12:24:27;;;;;;;3.33;3.03;;;14.60;99.90;;;;;;4971769;28;20475;-75
2022/04/16 12:26:52;;;;;;;4.03;3.40;;;14.90;99.90;;;;;;4973565;28;20836;-74
2022/04/16 12:29:24;;;;;;;4.00;3.70;;;14.90;99.90;;;;;;4973414;28;20512;-74
2022/04/16 12:31:56;;;;;;;6.60;4.30;;;14.60;99.90;;;;;;4968322;28;20215;-74
2022/04/16 12:34:22;;;;;;;4.37;3.97;;;14.40;99.90;;;;;;4973367;28;20422;-73
2022/04/16 12:36:47;;;;;;;6.43;3.50;;;14.30;99.90;;;;;;4971635;28;20431;-73
2022/04/16 12:39:12;;;;;;;3.90;3.50;;;14.50;99.90;;;;;;4973393;28;20203;-73
2022/04/16 12:41:38;;;;;;;4.90;3.63;;;14.70;99.90;;;;;;4968887;28;20719;-73
2022/04/16 12:44:04;;;;;;;3.87;3.30;;;14.90;99.90;;;;;;4973241;28;20263;-73
2022/04/16 12:46:30;;;;;;;4.00;3.17;;;14.80;99.90;;;;;;4968941;28;20196;-74
2022/04/16 12:48:55;;;;;;;4.33;3.50;;;15.00;99.90;;;;;;4973096;28;20251;-73
2022/04/16 12:51:21;;;;;;;4.80;4.27;;;14.90;99.90;;;;;;4970733;28;20224;-73
2022/04/16 12:53:46;;;;;;;4.30;3.63;;;14.60;99.90;;;;;;4969201;28;20196;-74
2022/04/16 12:56:11;;;;;;;3.67;3.40;;;14.70;99.90;;;;;;4972081;28;20184;-75
2022/04/16 12:58:37;;;;;;;4.23;3.83;;;14.60;99.90;;;;;;4969842;28;20258;-73
2022/04/16 13:01:02;;;;;;;4.73;4.07;;;14.80;99.90;;;;;;4970674;28;20384;-74
2022/04/16 13:03:29;;;;;;;4.33;3.93;;;14.80;99.90;;;;;;4969262;28;20187;-73
2022/04/16 13:05:54;;;;;;;5.10;3.67;;;14.80;99.90;;;;;;4973050;28;20263;-74
2022/04/16 13:08:20;;;;;;;4.00;3.60;;;14.80;99.90;;;;;;4970546;28;21047;-73
2022/04/16 13:10:46;;;;;;;4.47;4.07;;;14.90;99.90;;;;;;4972778;28;20168;-73
2022/04/16 13:13:11;;;;;;;2.73;2.53;;;14.80;99.90;;;;;;4970703;28;20435;-74
2022/04/16 13:15:37;;;;;;;3.33;3.03;;;14.80;99.90;;;;;;4962281;28;20192;-74
2022/04/16 13:18:04;;;;;;;4.93;3.77;;;14.80;99.90;;;;;;4971472;28;20226;-73
2022/04/16 13:20:30;;;;;;;5.30;4.23;;;14.70;99.90;;;;;;4971073;28;20176;-69
2022/04/16 13:22:55;;;;;;;3.83;3.43;;;14.70;99.90;;;;;;4972735;28;20792;-71
2022/04/16 13:25:21;;;;;;;4.37;3.63;;;14.70;99.90;;;;;;4969324;28;20449;-71
2022/04/16 13:27:47;;;;;;;4.43;4.03;;;14.60;99.90;;;;;;4972749;28;20251;-74
2022/04/16 13:30:12;;;;;;;4.40;3.97;;;14.60;99.90;;;;;;4966103;28;20215;-74
2022/04/16 13:32:38;;;;;;;3.13;2.83;;;14.60;99.90;;;;;;4972563;28;20699;-74
2022/04/16 13:35:05;;;;;;;3.93;3.50;;;14.70;99.90;;;;;;4970264;28;20614;-73
2022/04/16 13:37:30;;;;;;;3.20;2.93;;;14.70;99.90;;;;;;4971648;28;20178;-73
2022/04/16 13:42:40;;;;;;;4.90;3.20;;;14.80;99.90;;;;;;4972800;28;20260;-73
2022/04/16 13:45:06;;;;;;;3.23;2.97;;;14.80;99.90;;;;;;4970600;28;21067;-72
2022/04/16 13:47:31;;;;;;;4.70;3.10;;;14.50;99.90;;;;;;4971935;28;20680;-71
2022/04/16 13:49:57;;;;;;;4.00;2.87;;;14.50;99.90;;;;;;4973829;28;20465;-74
2022/04/16 13:52:22;;;;;;;5.53;3.63;;;14.60;99.90;;;;;;4970209;28;20672;-73
2022/04/16 13:54:48;;;;;;;3.50;3.00;;;14.60;99.90;;;;;;4972821;28;20176;-74
2022/04/16 13:57:14;;;;;;;4.20;3.70;;;14.60;99.90;;;;;;4966015;28;20622;-73
2022/04/16 13:59:40;;;;;;;6.80;4.10;;;14.60;99.90;;;;;;4970502;28;20188;-73
2022/04/16 14:02:07;;;;;;;5.33;3.97;;;14.60;99.90;;;;;;4968058;28;20204;-73
2022/04/16 14:07:18;;;;;;;3.73;3.03;;;14.30;99.90;;;;;;4971191;28;20494;-74
2022/04/16 14:09:44;;;;;;;3.93;3.23;;;14.40;99.90;;;;;;4970869;28;20959;-73
2022/04/16 14:12:09;;;;;;;3.90;3.00;;;14.50;99.90;;;;;;4969712;28;20578;-73
2022/04/16 14:14:35;;;;;;;6.13;3.50;;;14.50;99.90;;;;;;4971199;28;20642;-73
2022/04/16 14:17:00;;;;;;;3.67;3.13;;;14.50;99.90;;;;;;4969766;28;20188;-73
2022/04/16 14:19:26;;;;;;;4.73;3.77;;;14.50;99.90;;;;;;4968648;28;20645;-73
2022/04/16 14:21:54;;;;;;;6.20;4.07;;;14.50;99.90;;;;;;4972200;28;20283;-73
2022/04/16 14:24:21;;;;;;;4.80;4.30;;;14.50;99.90;;;;;;4970708;28;20188;-73
2022/04/16 14:26:47;;;;;;;5.20;3.13;;;14.60;99.90;;;;;;4975762;28;20418;-73
2022/04/16 14:29:14;;;;;;;6.93;3.30;;;14.50;99.90;;;;;;4971458;28;20824;-73
2022/04/16 14:31:39;;;;;;;5.40;3.20;;;14.60;99.90;;;;;;4971019;28;20462;-73
2022/04/16 14:34:07;;;;;;;4.30;3.90;;;14.50;99.90;;;;;;4971343;28;20435;-73
2022/04/16 14:36:32;;;;;;;3.50;3.20;;;14.60;99.90;;;;;;4975714;28;20203;-73
2022/04/16 14:38:59;;;;;;;4.53;3.50;;;14.60;99.90;;;;;;4974291;28;20470;-73
2022/04/16 14:41:25;;;;;;;4.73;4.13;;;14.50;99.90;;;;;;4973105;28;20290;-73
2022/04/16 14:43:56;;;;;;;4.07;3.67;;;14.60;99.90;;;;;;4975077;28;20419;-73
2022/04/16 14:46:22;;;;;;;4.57;4.17;;;14.50;99.90;;;;;;4970090;28;20431;-73
2022/04/16 14:48:53;;;;;;;4.30;3.30;;;14.50;99.90;;;;;;4975413;28;20498;-74
2022/04/16 14:51:19;;;;;;;4.67;3.50;;;14.40;99.90;;;;;;4974354;28;20223;-73